SWA1870 KSJC-KLAX
Flight info
| Callsign | SWA1870 |
|---|---|
| Flight time | 0h 48m |
| Altitude | 39000 |
| Route | SPTNS1 VLREE EBAYE BURGL IRNMN2 |
| Aircraft | B737/M-SDE2E3FGHIRWXY/LB1 |
Departure
| Time | 2026-04-26 22:00 |
|---|---|
| Airport | Norman Y. Mineta San Jose International Airport (KSJC) |
Arrival
| Time | 2026-04-26 22:49 |
|---|---|
| Airport | Los Angeles International Airport (KLAX) |
| Time | Latitude | Longitude | Altitude | Speed | Heading |
|---|---|---|---|---|---|
| 2026-04-26 21:27 | 37.36463 | -121.92499 | 60 ft | 0 kts | 49° |
| 2026-04-26 21:50 | 37.36462 | -121.92501 | 60 ft | 2 kts | 49° |
| 2026-04-26 21:50 | 37.36445 | -121.92525 | 54 ft | 4 kts | 49° |
| 2026-04-26 21:51 | 37.36430 | -121.92546 | 57 ft | 2 kts | 49° |
| 2026-04-26 21:51 | 37.36420 | -121.92569 | 56 ft | 4 kts | 109° |
| 2026-04-26 21:51 | 37.36434 | -121.92592 | 55 ft | 4 kts | 139° |
| 2026-04-26 21:51 | 37.36441 | -121.92599 | 57 ft | 0 kts | 139° |
| 2026-04-26 21:55 | 37.36438 | -121.92596 | 61 ft | 2 kts | 139° |
| 2026-04-26 21:55 | 37.36419 | -121.92576 | 57 ft | 5 kts | 139° |
| 2026-04-26 21:55 | 37.36380 | -121.92533 | 61 ft | 9 kts | 139° |
| 2026-04-26 21:55 | 37.36315 | -121.92497 | 57 ft | 12 kts | 200° |
| 2026-04-26 21:56 | 37.36257 | -121.92497 | 60 ft | 10 kts | 139° |
| 2026-04-26 21:56 | 37.36195 | -121.92427 | 59 ft | 14 kts | 139° |
| 2026-04-26 21:56 | 37.36113 | -121.92339 | 56 ft | 17 kts | 138° |
| 2026-04-26 21:56 | 37.36017 | -121.92232 | 60 ft | 20 kts | 139° |
| 2026-04-26 21:57 | 37.35909 | -121.92114 | 55 ft | 22 kts | 139° |
| 2026-04-26 21:57 | 37.35787 | -121.91981 | 58 ft | 24 kts | 139° |
| 2026-04-26 21:57 | 37.35663 | -121.91845 | 56 ft | 23 kts | 139° |
| 2026-04-26 21:57 | 37.35545 | -121.91715 | 60 ft | 22 kts | 139° |
| 2026-04-26 21:58 | 37.35429 | -121.91589 | 56 ft | 22 kts | 139° |
| 2026-04-26 21:58 | 37.35346 | -121.91498 | 55 ft | 13 kts | 139° |
| 2026-04-26 21:58 | 37.35285 | -121.91478 | 61 ft | 9 kts | 215° |
| 2026-04-26 21:58 | 37.35247 | -121.91537 | 62 ft | 9 kts | 259° |
| 2026-04-26 21:59 | 37.35266 | -121.91570 | 58 ft | 0 kts | 319° |
| 2026-04-26 21:59 | 37.35275 | -121.91579 | 61 ft | 9 kts | 319° |
| 2026-04-26 22:00 | 37.35509 | -121.91836 | 59 ft | 81 kts | 319° |
| 2026-04-26 22:00 | 37.36091 | -121.92473 | 71 ft | 137 kts | 317° |
| 2026-04-26 22:00 | 37.36849 | -121.93288 | 532 ft | 146 kts | 317° |
| 2026-04-26 22:00 | 37.37627 | -121.94150 | 1136 ft | 153 kts | 316° |
| 2026-04-26 22:01 | 37.38469 | -121.95083 | 1747 ft | 171 kts | 314° |
| 2026-04-26 22:01 | 37.39409 | -121.96134 | 2230 ft | 197 kts | 315° |
| 2026-04-26 22:01 | 37.40583 | -121.97289 | 2544 ft | 234 kts | 329° |
| 2026-04-26 22:01 | 37.42299 | -121.97620 | 3183 ft | 262 kts | 8° |
| 2026-04-26 22:02 | 37.43926 | -121.96591 | 4090 ft | 273 kts | 42° |
| 2026-04-26 22:02 | 37.44733 | -121.95320 | 4590 ft | 278 kts | 63° |
| 2026-04-26 22:02 | 37.45171 | -121.92260 | 4974 ft | 271 kts | 106° |
| 2026-04-26 22:02 | 37.44298 | -121.90214 | 4980 ft | 266 kts | 140° |
| 2026-04-26 22:03 | 37.42864 | -121.88769 | 4992 ft | 263 kts | 146° |
| 2026-04-26 22:03 | 37.41393 | -121.87400 | 4997 ft | 264 kts | 146° |
| 2026-04-26 22:03 | 37.39944 | -121.85980 | 5074 ft | 265 kts | 143° |
| 2026-04-26 22:03 | 37.38522 | -121.84441 | 5726 ft | 272 kts | 141° |
| 2026-04-26 22:04 | 37.37116 | -121.82885 | 6916 ft | 268 kts | 141° |
| 2026-04-26 22:04 | 37.35695 | -121.81313 | 7821 ft | 278 kts | 141° |
| 2026-04-26 22:04 | 37.34214 | -121.79680 | 8728 ft | 287 kts | 140° |
| 2026-04-26 22:04 | 37.32695 | -121.78010 | 9735 ft | 295 kts | 140° |
| 2026-04-26 22:05 | 37.31126 | -121.76289 | 10577 ft | 308 kts | 140° |
| 2026-04-26 22:05 | 37.29425 | -121.74430 | 10869 ft | 338 kts | 140° |
| 2026-04-26 22:05 | 37.27608 | -121.72445 | 11568 ft | 350 kts | 140° |
| 2026-04-26 22:05 | 37.25761 | -121.70430 | 12575 ft | 355 kts | 141° |
| 2026-04-26 22:06 | 37.23877 | -121.68376 | 13517 ft | 361 kts | 141° |
| 2026-04-26 22:06 | 37.21966 | -121.66295 | 14438 ft | 366 kts | 141° |
| 2026-04-26 22:06 | 37.20024 | -121.64182 | 15354 ft | 372 kts | 141° |
| 2026-04-26 22:06 | 37.18052 | -121.62039 | 16241 ft | 379 kts | 141° |
| 2026-04-26 22:07 | 37.16063 | -121.59881 | 17140 ft | 386 kts | 142° |
| 2026-04-26 22:07 | 37.13990 | -121.57632 | 18039 ft | 393 kts | 142° |
| 2026-04-26 22:07 | 37.11936 | -121.55406 | 18824 ft | 399 kts | 142° |
| 2026-04-26 22:07 | 37.09824 | -121.53118 | 19654 ft | 403 kts | 142° |
| 2026-04-26 22:08 | 37.07688 | -121.50806 | 20491 ft | 408 kts | 142° |
| 2026-04-26 22:08 | 37.05525 | -121.48467 | 21284 ft | 413 kts | 142° |
| 2026-04-26 22:08 | 37.03337 | -121.46102 | 22080 ft | 418 kts | 142° |
| 2026-04-26 22:08 | 37.01123 | -121.43712 | 22864 ft | 422 kts | 143° |
| 2026-04-26 22:09 | 36.98884 | -121.41296 | 23641 ft | 427 kts | 143° |
| 2026-04-26 22:09 | 36.96624 | -121.38859 | 24301 ft | 431 kts | 143° |
| 2026-04-26 22:09 | 36.94342 | -121.36401 | 24940 ft | 435 kts | 143° |
| 2026-04-26 22:09 | 36.92039 | -121.33922 | 25550 ft | 439 kts | 143° |
| 2026-04-26 22:10 | 36.89749 | -121.31459 | 26229 ft | 441 kts | 143° |
| 2026-04-26 22:10 | 36.87411 | -121.28946 | 26865 ft | 445 kts | 143° |
| 2026-04-26 22:10 | 36.85050 | -121.26411 | 27441 ft | 449 kts | 143° |
| 2026-04-26 22:10 | 36.82667 | -121.23855 | 28017 ft | 454 kts | 143° |
| 2026-04-26 22:11 | 36.80261 | -121.21276 | 28574 ft | 458 kts | 143° |
| 2026-04-26 22:11 | 36.77836 | -121.18679 | 29125 ft | 462 kts | 143° |
| 2026-04-26 22:11 | 36.75392 | -121.16063 | 29664 ft | 465 kts | 143° |
| 2026-04-26 22:11 | 36.72930 | -121.13430 | 30181 ft | 468 kts | 143° |
| 2026-04-26 22:12 | 36.70454 | -121.10785 | 30614 ft | 470 kts | 143° |
| 2026-04-26 22:12 | 36.67965 | -121.08127 | 31049 ft | 473 kts | 143° |
| 2026-04-26 22:12 | 36.65457 | -121.05450 | 31456 ft | 475 kts | 143° |
| 2026-04-26 22:12 | 36.62942 | -121.02770 | 31844 ft | 477 kts | 143° |
| 2026-04-26 22:13 | 36.60417 | -121.00086 | 32247 ft | 478 kts | 143° |
| 2026-04-26 22:13 | 36.57866 | -120.97440 | 32751 ft | 475 kts | 144° |
| 2026-04-26 22:13 | 36.55317 | -120.94847 | 33347 ft | 472 kts | 145° |
| 2026-04-26 22:13 | 36.52770 | -120.92277 | 33849 ft | 471 kts | 145° |
| 2026-04-26 22:14 | 36.50223 | -120.89711 | 34221 ft | 471 kts | 145° |
| 2026-04-26 22:14 | 36.47677 | -120.87144 | 34538 ft | 472 kts | 145° |
| 2026-04-26 22:14 | 36.45129 | -120.84570 | 34884 ft | 472 kts | 145° |
| 2026-04-26 22:14 | 36.42578 | -120.81989 | 35218 ft | 473 kts | 145° |
| 2026-04-26 22:15 | 36.40060 | -120.79441 | 35534 ft | 473 kts | 145° |
| 2026-04-26 22:15 | 36.37507 | -120.76857 | 35866 ft | 474 kts | 146° |
| 2026-04-26 22:15 | 36.34953 | -120.74274 | 36196 ft | 474 kts | 146° |
| 2026-04-26 22:15 | 36.32394 | -120.71689 | 36515 ft | 474 kts | 146° |
| 2026-04-26 22:16 | 36.29827 | -120.69098 | 36813 ft | 475 kts | 146° |
| 2026-04-26 22:16 | 36.27262 | -120.66511 | 37118 ft | 475 kts | 146° |
| 2026-04-26 22:16 | 36.24699 | -120.63928 | 37444 ft | 475 kts | 146° |
| 2026-04-26 22:16 | 36.22136 | -120.61348 | 37759 ft | 475 kts | 146° |
| 2026-04-26 22:17 | 36.19570 | -120.58768 | 38017 ft | 476 kts | 146° |
| 2026-04-26 22:17 | 36.16997 | -120.56183 | 38308 ft | 476 kts | 146° |
| 2026-04-26 22:17 | 36.14429 | -120.53604 | 38654 ft | 475 kts | 146° |
| 2026-04-26 22:17 | 36.11863 | -120.51029 | 38882 ft | 475 kts | 146° |
| 2026-04-26 22:18 | 36.09291 | -120.48452 | 38986 ft | 477 kts | 147° |
| 2026-04-26 22:18 | 36.06713 | -120.45871 | 39003 ft | 477 kts | 147° |
| 2026-04-26 22:18 | 36.01567 | -120.40723 | 39011 ft | 475 kts | 147° |
| 2026-04-26 22:19 | 35.96432 | -120.35596 | 39005 ft | 474 kts | 147° |
| 2026-04-26 22:19 | 35.91339 | -120.30518 | 38997 ft | 473 kts | 147° |
| 2026-04-26 22:20 | 35.87041 | -120.26257 | 39008 ft | 471 kts | 148° |
| 2026-04-26 22:20 | 35.80689 | -120.21251 | 39005 ft | 464 kts | 156° |
| 2026-04-26 22:21 | 35.75125 | -120.17200 | 38997 ft | 464 kts | 155° |
| 2026-04-26 22:21 | 35.69592 | -120.13060 | 39016 ft | 465 kts | 155° |
| 2026-04-26 22:22 | 35.64066 | -120.08894 | 39017 ft | 467 kts | 155° |
| 2026-04-26 22:22 | 35.58521 | -120.04706 | 38986 ft | 468 kts | 155° |
| 2026-04-26 22:23 | 35.52969 | -120.00515 | 39008 ft | 469 kts | 155° |
| 2026-04-26 22:23 | 35.47433 | -119.96346 | 39012 ft | 470 kts | 155° |
| 2026-04-26 22:24 | 35.41849 | -119.92148 | 39000 ft | 471 kts | 155° |
| 2026-04-26 22:24 | 35.36254 | -119.87947 | 38995 ft | 471 kts | 155° |
| 2026-04-26 22:25 | 35.30655 | -119.83750 | 39002 ft | 472 kts | 155° |
| 2026-04-26 22:25 | 35.25154 | -119.79255 | 38545 ft | 484 kts | 149° |
| 2026-04-26 22:26 | 35.22482 | -119.76726 | 37860 ft | 484 kts | 148° |
| 2026-04-26 22:26 | 35.19859 | -119.74168 | 37167 ft | 481 kts | 148° |
| 2026-04-26 22:26 | 35.17243 | -119.71626 | 36477 ft | 478 kts | 148° |
| 2026-04-26 22:26 | 35.15508 | -119.69961 | 36000 ft | 477 kts | 148° |
| 2026-04-26 22:27 | 35.12888 | -119.67479 | 35217 ft | 477 kts | 148° |
| 2026-04-26 22:27 | 35.10256 | -119.65015 | 34409 ft | 477 kts | 147° |
| 2026-04-26 22:27 | 35.07612 | -119.62557 | 33451 ft | 478 kts | 147° |
| 2026-04-26 22:27 | 35.04964 | -119.60100 | 32481 ft | 478 kts | 147° |
| 2026-04-26 22:28 | 35.02324 | -119.57649 | 31657 ft | 475 kts | 147° |
| 2026-04-26 22:28 | 34.99713 | -119.55225 | 31029 ft | 468 kts | 146° |
| 2026-04-26 22:28 | 34.97138 | -119.52834 | 30395 ft | 463 kts | 146° |
| 2026-04-26 22:28 | 34.94591 | -119.50471 | 29709 ft | 458 kts | 146° |
| 2026-04-26 22:29 | 34.92069 | -119.48135 | 28995 ft | 452 kts | 146° |
| 2026-04-26 22:29 | 34.89583 | -119.45858 | 28520 ft | 442 kts | 147° |
| 2026-04-26 22:29 | 34.87132 | -119.43661 | 28048 ft | 434 kts | 147° |
| 2026-04-26 22:29 | 34.84708 | -119.41505 | 27585 ft | 428 kts | 147° |
| 2026-04-26 22:30 | 34.82303 | -119.39368 | 27151 ft | 430 kts | 147° |
| 2026-04-26 22:30 | 34.79879 | -119.37210 | 26700 ft | 433 kts | 147° |
| 2026-04-26 22:30 | 34.77450 | -119.35041 | 26229 ft | 431 kts | 147° |
| 2026-04-26 22:30 | 34.75043 | -119.32890 | 25785 ft | 426 kts | 147° |
| 2026-04-26 22:31 | 34.72670 | -119.30794 | 25338 ft | 418 kts | 147° |
| 2026-04-26 22:31 | 34.70323 | -119.28747 | 24910 ft | 412 kts | 147° |
| 2026-04-26 22:31 | 34.68035 | -119.26755 | 24491 ft | 407 kts | 147° |
| 2026-04-26 22:31 | 34.65742 | -119.24757 | 24081 ft | 404 kts | 147° |
| 2026-04-26 22:32 | 34.63465 | -119.22779 | 23795 ft | 402 kts | 147° |
| 2026-04-26 22:32 | 34.61172 | -119.20804 | 23530 ft | 406 kts | 147° |
| 2026-04-26 22:32 | 34.58859 | -119.18814 | 23237 ft | 407 kts | 147° |
| 2026-04-26 22:32 | 34.56554 | -119.16829 | 22943 ft | 405 kts | 147° |
| 2026-04-26 22:33 | 34.54249 | -119.14817 | 22284 ft | 410 kts | 147° |
| 2026-04-26 22:33 | 34.49662 | -119.10736 | 21050 ft | 404 kts | 147° |
| 2026-04-26 22:33 | 34.47405 | -119.08731 | 20460 ft | 399 kts | 147° |
| 2026-04-26 22:34 | 34.45169 | -119.06752 | 19867 ft | 395 kts | 147° |
| 2026-04-26 22:34 | 34.42953 | -119.04805 | 19259 ft | 392 kts | 147° |
| 2026-04-26 22:34 | 34.40772 | -119.02915 | 18702 ft | 388 kts | 148° |
| 2026-04-26 22:34 | 34.38581 | -119.01025 | 18098 ft | 385 kts | 148° |
| 2026-04-26 22:35 | 34.36405 | -118.99145 | 17456 ft | 382 kts | 148° |
| 2026-04-26 22:35 | 34.34256 | -118.97286 | 16879 ft | 378 kts | 147° |
| 2026-04-26 22:35 | 34.32150 | -118.95405 | 16421 ft | 372 kts | 146° |
| 2026-04-26 22:35 | 34.30101 | -118.93532 | 15954 ft | 368 kts | 146° |
| 2026-04-26 22:36 | 34.28062 | -118.91669 | 15516 ft | 366 kts | 146° |
| 2026-04-26 22:36 | 34.26025 | -118.89818 | 15074 ft | 365 kts | 146° |
| 2026-04-26 22:36 | 34.24006 | -118.87976 | 14633 ft | 363 kts | 146° |
| 2026-04-26 22:36 | 34.22001 | -118.86132 | 14199 ft | 361 kts | 145° |
| 2026-04-26 22:37 | 34.20011 | -118.84300 | 13746 ft | 358 kts | 146° |
| 2026-04-26 22:37 | 34.18043 | -118.82492 | 13254 ft | 351 kts | 145° |
| 2026-04-26 22:37 | 34.16140 | -118.80725 | 12806 ft | 339 kts | 143° |
| 2026-04-26 22:37 | 34.14412 | -118.78916 | 12442 ft | 326 kts | 140° |
| 2026-04-26 22:38 | 34.12759 | -118.77084 | 12074 ft | 323 kts | 140° |
| 2026-04-26 22:38 | 34.11105 | -118.75243 | 11742 ft | 322 kts | 140° |
| 2026-04-26 22:38 | 34.09462 | -118.73430 | 11394 ft | 318 kts | 141° |
| 2026-04-26 22:38 | 34.07830 | -118.71647 | 11060 ft | 315 kts | 141° |
| 2026-04-26 22:39 | 34.06205 | -118.69882 | 10734 ft | 313 kts | 141° |
| 2026-04-26 22:39 | 34.04593 | -118.68134 | 10405 ft | 311 kts | 141° |
| 2026-04-26 22:39 | 34.03238 | -118.66103 | 10038 ft | 313 kts | 117° |
| 2026-04-26 22:39 | 34.02643 | -118.63629 | 9697 ft | 306 kts | 97° |
| 2026-04-26 22:40 | 34.02413 | -118.61098 | 9355 ft | 302 kts | 95° |
| 2026-04-26 22:40 | 34.02202 | -118.58586 | 9006 ft | 298 kts | 96° |
| 2026-04-26 22:40 | 34.01987 | -118.56146 | 8673 ft | 295 kts | 96° |
| 2026-04-26 22:40 | 34.01768 | -118.53708 | 8380 ft | 288 kts | 96° |
| 2026-04-26 22:41 | 34.01550 | -118.51355 | 8072 ft | 277 kts | 96° |
| 2026-04-26 22:41 | 34.01338 | -118.49103 | 7776 ft | 265 kts | 96° |
| 2026-04-26 22:41 | 34.01131 | -118.46917 | 7481 ft | 261 kts | 96° |
| 2026-04-26 22:41 | 34.01104 | -118.44753 | 7167 ft | 258 kts | 78° |
| 2026-04-26 22:42 | 34.01500 | -118.42598 | 6907 ft | 275 kts | 75° |
| 2026-04-26 22:42 | 34.01926 | -118.40316 | 6590 ft | 281 kts | 76° |
| 2026-04-26 22:42 | 34.02335 | -118.38021 | 6244 ft | 277 kts | 77° |
| 2026-04-26 22:42 | 34.02727 | -118.35755 | 5932 ft | 275 kts | 79° |
| 2026-04-26 22:43 | 34.03001 | -118.33492 | 5585 ft | 268 kts | 84° |
| 2026-04-26 22:43 | 34.03211 | -118.31288 | 5262 ft | 262 kts | 84° |
| 2026-04-26 22:43 | 34.03419 | -118.29107 | 4958 ft | 263 kts | 84° |
| 2026-04-26 22:43 | 34.03635 | -118.26909 | 4612 ft | 264 kts | 84° |
| 2026-04-26 22:44 | 34.03694 | -118.24721 | 4250 ft | 260 kts | 102° |
| 2026-04-26 22:44 | 34.02961 | -118.22794 | 3946 ft | 251 kts | 134° |
| 2026-04-26 22:44 | 34.01597 | -118.21636 | 3663 ft | 233 kts | 166° |
| 2026-04-26 22:44 | 34.00070 | -118.21383 | 3420 ft | 217 kts | 188° |
| 2026-04-26 22:45 | 33.98637 | -118.21818 | 3176 ft | 209 kts | 210° |
| 2026-04-26 22:45 | 33.97533 | -118.22835 | 2907 ft | 196 kts | 233° |
| 2026-04-26 22:45 | 33.96898 | -118.24213 | 2659 ft | 183 kts | 253° |
| 2026-04-26 22:45 | 33.96662 | -118.25673 | 2450 ft | 172 kts | 263° |
| 2026-04-26 22:46 | 33.96527 | -118.27068 | 2230 ft | 168 kts | 262° |
| 2026-04-26 22:46 | 33.96390 | -118.28496 | 2036 ft | 172 kts | 262° |
| 2026-04-26 22:46 | 33.96250 | -118.29914 | 1791 ft | 167 kts | 263° |
| 2026-04-26 22:46 | 33.96117 | -118.31247 | 1580 ft | 153 kts | 263° |
| 2026-04-26 22:47 | 33.95993 | -118.32485 | 1395 ft | 142 kts | 263° |
| 2026-04-26 22:47 | 33.95885 | -118.33571 | 1234 ft | 123 kts | 261° |
| 2026-04-26 22:47 | 33.95787 | -118.34535 | 1039 ft | 109 kts | 262° |
| 2026-04-26 22:47 | 33.95696 | -118.35430 | 864 ft | 108 kts | 263° |
| 2026-04-26 22:48 | 33.95598 | -118.36365 | 800 ft | 114 kts | 263° |
| 2026-04-26 22:48 | 33.95516 | -118.37287 | 658 ft | 106 kts | 261° |
| 2026-04-26 22:48 | 33.95426 | -118.38148 | 483 ft | 105 kts | 259° |
| 2026-04-26 22:48 | 33.95330 | -118.39061 | 318 ft | 114 kts | 258° |
| 2026-04-26 22:49 | 33.95227 | -118.40020 | 170 ft | 116 kts | 259° |
| 2026-04-26 22:49 | 33.95136 | -118.40948 | 91 ft | 95 kts | 263° |
| 2026-04-26 22:49 | 33.95077 | -118.41491 | 93 ft | 46 kts | 263° |
| 2026-04-26 22:49 | 33.95041 | -118.41847 | 93 ft | 40 kts | 263° |
| 2026-04-26 22:50 | 33.94982 | -118.42126 | 94 ft | 31 kts | 241° |
| 2026-04-26 22:50 | 33.94892 | -118.42247 | 94 ft | 11 kts | 217° |
| 2026-04-26 22:50 | 33.94824 | -118.42280 | 96 ft | 11 kts | 189° |
| 2026-04-26 22:50 | 33.94741 | -118.42277 | 94 ft | 14 kts | 172° |
| 2026-04-26 22:51 | 33.94687 | -118.42200 | 93 ft | 15 kts | 83° |
| 2026-04-26 22:51 | 33.94698 | -118.42080 | 92 ft | 15 kts | 83° |
| 2026-04-26 22:51 | 33.94712 | -118.41950 | 92 ft | 17 kts | 82° |
| 2026-04-26 22:51 | 33.94727 | -118.41795 | 92 ft | 20 kts | 84° |
| 2026-04-26 22:52 | 33.94745 | -118.41619 | 92 ft | 22 kts | 83° |
| 2026-04-26 22:52 | 33.94763 | -118.41441 | 95 ft | 20 kts | 79° |
| 2026-04-26 22:52 | 33.94793 | -118.41279 | 93 ft | 20 kts | 84° |
| 2026-04-26 22:52 | 33.94811 | -118.41117 | 94 ft | 20 kts | 83° |
| 2026-04-26 22:53 | 33.94828 | -118.40941 | 94 ft | 22 kts | 83° |
| 2026-04-26 22:53 | 33.94848 | -118.40742 | 95 ft | 25 kts | 83° |
| 2026-04-26 22:53 | 33.94871 | -118.40527 | 93 ft | 27 kts | 83° |
| 2026-04-26 22:53 | 33.94895 | -118.40291 | 93 ft | 29 kts | 83° |
| 2026-04-26 22:54 | 33.94912 | -118.40125 | 93 ft | 11 kts | 83° |
| 2026-04-26 22:54 | 33.94892 | -118.40085 | 96 ft | 5 kts | 148° |
| 2026-04-26 22:54 | 33.94855 | -118.40070 | 92 ft | 7 kts | 144° |
| 2026-04-26 22:54 | 33.94833 | -118.40013 | 92 ft | 9 kts | 136° |
| 2026-04-26 22:55 | 33.94774 | -118.40006 | 94 ft | 9 kts | 186° |
| 2026-04-26 22:55 | 33.94736 | -118.40017 | 92 ft | 2 kts | 224° |
| 2026-04-26 22:55 | 33.94733 | -118.40032 | 92 ft | 2 kts | 261° |
| 2026-04-26 22:55 | 33.94730 | -118.40058 | 95 ft | 3 kts | 264° |
| 2026-04-26 22:56 | 33.94729 | -118.40064 | 95 ft | 0 kts | 264° |